createdAt,value
2019-01-09T00:00:45.150Z,995.62
2019-01-09T00:01:45.123Z,995.67
2019-01-09T00:02:45.137Z,995.71
2019-01-09T00:03:45.103Z,995.69
2019-01-09T00:04:45.093Z,995.64
2019-01-09T00:05:45.086Z,995.73
2019-01-09T00:06:45.103Z,995.66
2019-01-09T00:07:45.101Z,995.66
2019-01-09T00:08:45.066Z,995.70
2019-01-09T00:09:45.041Z,995.70
2019-01-09T00:10:45.031Z,995.73
2019-01-09T00:11:45.025Z,995.76
2019-01-09T00:12:45.012Z,995.78
2019-01-09T00:13:45.003Z,995.71
2019-01-09T00:14:44.975Z,995.71
2019-01-09T00:15:44.970Z,995.72
2019-01-09T00:16:44.964Z,995.83
2019-01-09T00:17:44.945Z,995.74
2019-01-09T00:18:44.954Z,995.82
2019-01-09T00:19:44.925Z,995.78
2019-01-09T00:20:44.917Z,995.78
2019-01-09T00:21:44.915Z,995.77
2019-01-09T00:22:44.887Z,995.81
2019-01-09T00:23:44.913Z,995.78
2019-01-09T00:24:44.873Z,995.81
2019-01-09T00:25:44.861Z,995.80
2019-01-09T00:26:44.845Z,995.79
2019-01-09T00:27:44.837Z,995.86
2019-01-09T00:28:44.872Z,995.81
2019-01-09T00:29:44.831Z,995.75
2019-01-09T00:30:44.804Z,995.78
2019-01-09T00:31:44.796Z,995.89
2019-01-09T00:32:44.793Z,995.86
2019-01-09T00:33:44.807Z,995.97
2019-01-09T00:34:44.768Z,995.79
2019-01-09T00:35:44.762Z,995.84
2019-01-09T00:36:44.749Z,995.84
2019-01-09T00:37:44.737Z,995.79
2019-01-09T00:38:44.762Z,995.82
2019-01-09T00:39:44.719Z,995.82
2019-01-09T00:40:44.710Z,995.84
2019-01-09T00:41:44.688Z,995.80
2019-01-09T00:42:44.682Z,995.85
2019-01-09T00:43:44.685Z,995.83
2019-01-09T00:45:12.194Z,995.81
2019-01-09T00:45:45.700Z,995.85
2019-01-09T00:46:44.657Z,995.85
2019-01-09T00:47:44.627Z,995.89
2019-01-09T00:48:44.639Z,995.87
2019-01-09T00:49:44.628Z,995.82
2019-01-09T00:50:44.601Z,995.95
2019-01-09T00:51:44.584Z,995.95
2019-01-09T00:52:44.595Z,995.81
2019-01-09T00:53:44.565Z,995.91
2019-01-09T00:54:44.596Z,995.91
2019-01-09T00:55:44.539Z,995.96
2019-01-09T00:56:44.537Z,996.00
2019-01-09T00:57:44.528Z,995.89
2019-01-09T00:58:44.522Z,996.00
2019-01-09T00:59:44.535Z,996.06
2019-01-09T01:00:44.496Z,995.92
2019-01-09T01:01:44.559Z,996.14
2019-01-09T01:02:44.471Z,995.99
2019-01-09T01:03:44.462Z,996.22
2019-01-09T01:04:44.472Z,996.12
2019-01-09T01:05:46.160Z,996.12
2019-01-09T01:06:44.421Z,996.17
2019-01-09T01:07:44.413Z,996.08
2019-01-09T01:08:44.404Z,996.07
2019-01-09T01:09:44.407Z,996.18
2019-01-09T01:10:44.401Z,996.05
2019-01-09T01:11:44.368Z,996.10
2019-01-09T01:12:44.358Z,996.20
2019-01-09T01:13:44.349Z,996.14
2019-01-09T01:14:44.364Z,996.15
2019-01-09T01:15:44.330Z,996.19
2019-01-09T01:16:44.336Z,996.23
2019-01-09T01:17:44.306Z,996.19
2019-01-09T01:18:44.291Z,996.26
2019-01-09T01:19:44.307Z,996.17
2019-01-09T01:20:44.280Z,996.20
2019-01-09T01:21:44.267Z,996.31
2019-01-09T01:22:44.258Z,996.21
2019-01-09T01:23:44.242Z,996.31
2019-01-09T01:24:44.257Z,996.28
2019-01-09T01:25:44.222Z,996.31
2019-01-09T01:26:44.216Z,996.37
2019-01-09T01:27:44.195Z,996.29
2019-01-09T01:28:44.185Z,996.36
2019-01-09T01:29:44.203Z,996.43
2019-01-09T01:30:44.179Z,996.30
2019-01-09T01:31:44.154Z,996.33
2019-01-09T01:32:44.153Z,996.36
2019-01-09T01:33:44.146Z,996.42
2019-01-09T01:34:44.157Z,996.50
2019-01-09T01:35:44.115Z,996.44
2019-01-09T01:36:44.108Z,996.44
2019-01-09T01:37:44.094Z,996.45
2019-01-09T01:38:44.094Z,996.44
2019-01-09T01:39:44.076Z,996.52
2019-01-09T01:40:44.083Z,996.49
2019-01-09T01:41:44.050Z,996.43
2019-01-09T01:42:44.054Z,996.51
2019-01-09T01:43:44.029Z,996.47
2019-01-09T01:44:44.026Z,996.49
2019-01-09T01:45:44.032Z,996.53
2019-01-09T01:46:43.997Z,996.57
2019-01-09T01:47:43.989Z,996.57
2019-01-09T01:48:43.974Z,996.66
2019-01-09T01:49:43.972Z,996.59
2019-01-09T01:50:43.974Z,996.56
2019-01-09T01:51:43.945Z,996.58
2019-01-09T01:52:43.934Z,996.59
2019-01-09T01:53:43.921Z,996.69
2019-01-09T01:54:43.911Z,996.70
2019-01-09T01:55:43.929Z,996.69
2019-01-09T01:56:43.892Z,996.62
2019-01-09T01:57:43.885Z,996.60
2019-01-09T01:58:43.876Z,996.64
2019-01-09T01:59:43.866Z,996.60
2019-01-09T02:00:43.898Z,996.67
2019-01-09T02:01:43.841Z,996.67
2019-01-09T02:02:43.828Z,996.72
2019-01-09T02:03:43.822Z,996.69
2019-01-09T02:04:43.819Z,996.74
2019-01-09T02:05:43.822Z,996.74
2019-01-09T02:06:43.788Z,996.76
2019-01-09T02:07:43.781Z,996.82
2019-01-09T02:08:43.768Z,996.79
2019-01-09T02:09:43.758Z,996.84
2019-01-09T02:10:43.764Z,996.86
2019-01-09T02:11:43.736Z,996.83
2019-01-09T02:12:43.722Z,996.83
2019-01-09T02:13:43.728Z,996.91
2019-01-09T02:14:43.701Z,996.91
2019-01-09T02:15:43.714Z,996.91
2019-01-09T02:16:43.684Z,996.97
2019-01-09T02:17:43.670Z,996.93
2019-01-09T02:18:43.659Z,996.92
2019-01-09T02:19:43.644Z,996.95
2019-01-09T02:20:43.684Z,996.93
2019-01-09T02:21:43.626Z,997.00
2019-01-09T02:22:43.624Z,997.08
2019-01-09T02:23:43.605Z,996.94
2019-01-09T02:24:43.611Z,997.05
2019-01-09T02:25:43.583Z,997.06
2019-01-09T02:26:43.593Z,997.01
2019-01-09T02:27:43.565Z,997.20
2019-01-09T02:28:43.563Z,997.08
2019-01-09T02:29:43.544Z,997.06
2019-01-09T02:30:43.536Z,997.16
2019-01-09T02:31:43.554Z,997.12
2019-01-09T02:32:43.515Z,997.14
2019-01-09T02:33:43.496Z,997.18
2019-01-09T02:34:43.494Z,997.18
2019-01-09T02:35:43.477Z,997.20
2019-01-09T02:36:43.473Z,997.23
2019-01-09T02:37:43.483Z,997.13
2019-01-09T02:38:43.451Z,997.24
2019-01-09T02:39:43.435Z,997.24
2019-01-09T02:40:43.431Z,997.22
2019-01-09T02:41:43.418Z,997.23
2019-01-09T02:42:43.434Z,997.31
2019-01-09T02:43:43.402Z,997.32
2019-01-09T02:44:43.387Z,997.28
2019-01-09T02:45:43.386Z,997.19
2019-01-09T02:46:43.370Z,997.32
2019-01-09T02:47:43.412Z,997.25
2019-01-09T02:48:43.346Z,997.42
2019-01-09T02:49:43.335Z,997.31
2019-01-09T02:50:43.324Z,997.32
2019-01-09T02:51:43.332Z,997.41
2019-01-09T02:52:43.296Z,997.32
2019-01-09T02:53:43.307Z,997.36
2019-01-09T02:54:43.275Z,997.38
2019-01-09T02:55:43.272Z,997.43
2019-01-09T02:56:43.254Z,997.48
2019-01-09T02:57:43.247Z,997.33
2019-01-09T02:58:43.270Z,997.35
2019-01-09T02:59:43.228Z,997.43
2019-01-09T03:00:43.224Z,997.41
2019-01-09T03:01:43.224Z,997.39
2019-01-09T03:02:43.193Z,997.45
2019-01-09T03:03:43.184Z,997.39
2019-01-09T03:04:43.184Z,997.35
2019-01-09T03:05:43.170Z,997.41
2019-01-09T03:06:43.172Z,997.42
2019-01-09T03:07:43.144Z,997.38
2019-01-09T03:08:43.130Z,997.50
2019-01-09T03:09:43.149Z,997.47
2019-01-09T03:10:43.112Z,997.42
2019-01-09T03:11:43.106Z,997.40
2019-01-09T03:12:52.258Z,997.47
2019-01-09T03:13:43.074Z,997.44
2019-01-09T03:14:43.106Z,997.51
2019-01-09T03:15:43.052Z,997.55
2019-01-09T03:16:43.054Z,997.43
2019-01-09T03:17:43.056Z,997.46
2019-01-09T03:18:43.023Z,997.56
2019-01-09T03:19:43.016Z,997.54
2019-01-09T03:20:43.013Z,997.57
2019-01-09T03:21:42.991Z,997.49
2019-01-09T03:22:43.003Z,997.57
2019-01-09T03:23:42.972Z,997.53
2019-01-09T03:24:42.958Z,997.58
2019-01-09T03:25:42.970Z,997.59
2019-01-09T03:26:42.944Z,997.57
2019-01-09T03:27:42.928Z,997.59
2019-01-09T03:28:42.922Z,997.63
2019-01-09T03:29:42.904Z,997.59
2019-01-09T03:30:42.942Z,997.57
2019-01-09T03:31:42.888Z,997.58
2019-01-09T03:32:42.908Z,997.69
2019-01-09T03:33:42.868Z,997.62
2019-01-09T03:34:42.864Z,997.72
2019-01-09T03:35:42.847Z,997.61
2019-01-09T03:36:42.858Z,997.68
2019-01-09T03:37:42.827Z,997.65
2019-01-09T03:38:42.812Z,997.63
2019-01-09T03:39:42.823Z,997.73
2019-01-09T03:40:42.788Z,997.75
2019-01-09T03:41:42.804Z,997.73
2019-01-09T03:42:42.875Z,997.70
2019-01-09T03:43:42.770Z,997.64
2019-01-09T03:44:42.746Z,997.78
2019-01-09T03:45:42.746Z,997.87
2019-01-09T03:46:42.749Z,997.76
2019-01-09T03:47:42.760Z,997.78
2019-01-09T03:48:42.706Z,997.73
2019-01-09T03:49:42.783Z,997.74
2019-01-09T03:50:42.688Z,997.80
2019-01-09T03:51:42.678Z,997.74
2019-01-09T03:52:42.727Z,997.82
2019-01-09T03:53:42.651Z,997.84
2019-01-09T03:54:42.662Z,997.79
2019-01-09T03:55:42.651Z,997.80
2019-01-09T03:56:42.619Z,997.77
2019-01-09T03:57:42.654Z,997.88
2019-01-09T03:58:42.596Z,997.86
2019-01-09T03:59:42.590Z,997.88
2019-01-09T04:00:42.585Z,997.97
2019-01-09T04:01:42.593Z,997.87
2019-01-09T04:02:42.582Z,997.94
2019-01-09T04:03:42.643Z,997.92
2019-01-09T04:04:42.545Z,997.89
2019-01-09T04:05:42.555Z,997.88
2019-01-09T04:06:42.622Z,997.90
2019-01-09T04:07:42.565Z,997.87
2019-01-09T04:08:42.568Z,997.93
2019-01-09T04:09:42.517Z,997.94
2019-01-09T04:10:42.473Z,997.92
2019-01-09T04:11:42.478Z,997.93
2019-01-09T04:12:42.463Z,998.03
2019-01-09T04:13:42.509Z,998.04
2019-01-09T04:14:42.446Z,997.99
2019-01-09T04:15:42.421Z,998.06
2019-01-09T04:16:42.410Z,998.01
2019-01-09T04:17:42.397Z,998.04
2019-01-09T04:18:42.416Z,998.01
2019-01-09T04:19:42.378Z,998.08
2019-01-09T04:20:42.372Z,998.05
2019-01-09T04:21:42.376Z,998.01
2019-01-09T04:22:42.358Z,998.04
2019-01-09T04:23:42.359Z,998.01
2019-01-09T04:24:42.325Z,998.00
2019-01-09T04:25:42.316Z,998.10
2019-01-09T04:26:42.315Z,998.10
2019-01-09T04:27:42.296Z,998.08
2019-01-09T04:28:42.307Z,998.11
2019-01-09T04:29:42.285Z,998.15
2019-01-09T04:30:42.264Z,998.11
2019-01-09T04:31:42.259Z,998.19
2019-01-09T04:32:42.239Z,998.11
2019-01-09T04:33:42.243Z,998.18
2019-01-09T04:34:42.229Z,998.22
2019-01-09T04:35:42.210Z,998.30
2019-01-09T04:36:51.106Z,998.21
2019-01-09T04:37:43.181Z,998.23
2019-01-09T04:38:42.209Z,998.17
2019-01-09T04:39:42.175Z,998.21
2019-01-09T04:40:42.172Z,998.22
2019-01-09T04:41:42.151Z,998.21
2019-01-09T04:42:42.134Z,998.21
2019-01-09T04:43:42.139Z,998.19
2019-01-09T04:44:42.112Z,998.17
2019-01-09T04:45:42.106Z,998.25
2019-01-09T04:46:42.086Z,998.19
2019-01-09T04:47:42.103Z,998.24
2019-01-09T04:48:50.356Z,998.19
2019-01-09T04:49:42.071Z,998.25
2019-01-09T04:50:51.326Z,998.18
2019-01-09T04:51:42.039Z,998.22
2019-01-09T04:52:42.031Z,998.20
2019-01-09T04:53:42.073Z,998.15
2019-01-09T04:54:42.076Z,998.25
2019-01-09T04:55:42.018Z,998.21
2019-01-09T04:56:41.990Z,998.34
2019-01-09T04:57:41.983Z,998.25
2019-01-09T04:58:41.963Z,998.31
2019-01-09T04:59:42.015Z,998.33
2019-01-09T05:00:41.955Z,998.30
2019-01-09T05:01:41.929Z,998.24
2019-01-09T05:02:41.919Z,998.24
2019-01-09T05:03:41.910Z,998.34
2019-01-09T05:04:41.941Z,998.34
2019-01-09T05:05:41.889Z,998.33
2019-01-09T05:06:41.895Z,998.31
2019-01-09T05:07:41.867Z,998.24
2019-01-09T05:08:41.863Z,998.26
2019-01-09T05:09:41.865Z,998.35
2019-01-09T05:10:41.844Z,998.39
2019-01-09T05:11:41.828Z,998.40
2019-01-09T05:12:41.828Z,998.30
2019-01-09T05:13:41.802Z,998.36
2019-01-09T05:14:41.810Z,998.36
2019-01-09T05:15:41.807Z,998.51
2019-01-09T05:16:41.782Z,998.38
2019-01-09T05:17:41.776Z,998.46
2019-01-09T05:18:41.760Z,998.50
2019-01-09T05:19:41.777Z,998.40
2019-01-09T05:20:41.727Z,998.43
2019-01-09T05:21:41.716Z,998.46
2019-01-09T05:22:41.705Z,998.45
2019-01-09T05:23:41.707Z,998.52
2019-01-09T05:24:41.717Z,998.47
2019-01-09T05:25:41.688Z,998.50
2019-01-09T05:26:41.692Z,998.56
2019-01-09T05:27:41.660Z,998.52
2019-01-09T05:28:41.644Z,998.46
2019-01-09T05:29:41.684Z,998.48
2019-01-09T05:30:41.621Z,998.58
2019-01-09T05:31:41.611Z,998.58
2019-01-09T05:32:41.601Z,998.56
2019-01-09T05:33:41.607Z,998.65
2019-01-09T05:34:41.610Z,998.60
2019-01-09T05:35:41.581Z,998.54
2019-01-09T05:36:41.557Z,998.65
2019-01-09T05:37:41.549Z,998.73
2019-01-09T05:38:41.537Z,998.63
2019-01-09T05:39:41.546Z,998.59
2019-01-09T05:40:41.522Z,998.71
2019-01-09T05:41:41.507Z,998.70
2019-01-09T05:42:41.491Z,998.66
2019-01-09T05:43:41.503Z,998.63
2019-01-09T05:44:41.493Z,998.66
2019-01-09T05:45:41.466Z,998.69
2019-01-09T05:46:41.467Z,998.61
2019-01-09T05:47:41.459Z,998.66
2019-01-09T05:48:41.435Z,998.78
2019-01-09T05:49:41.452Z,998.64
2019-01-09T05:50:41.415Z,998.72
2019-01-09T05:51:41.409Z,998.68
2019-01-09T05:52:41.419Z,998.75
2019-01-09T05:53:41.396Z,998.76
2019-01-09T05:54:41.656Z,998.83
2019-01-09T05:55:41.356Z,998.87
2019-01-09T05:56:41.354Z,998.82
2019-01-09T05:57:41.345Z,998.86
2019-01-09T05:58:41.331Z,998.86
2019-01-09T05:59:41.318Z,998.84
2019-01-09T06:00:41.335Z,998.86
2019-01-09T06:01:41.293Z,998.92
2019-01-09T06:02:41.293Z,998.90
2019-01-09T06:03:41.272Z,998.94
2019-01-09T06:04:41.265Z,998.88
2019-01-09T06:05:41.280Z,998.91
2019-01-09T06:06:41.249Z,998.95
2019-01-09T06:07:41.233Z,998.98
2019-01-09T06:08:41.221Z,998.97
2019-01-09T06:09:41.211Z,998.88
2019-01-09T06:10:41.217Z,998.92
2019-01-09T06:11:41.193Z,998.90
2019-01-09T06:12:41.178Z,998.99
2019-01-09T06:13:41.169Z,999.02
2019-01-09T06:14:41.153Z,999.00
2019-01-09T06:15:41.166Z,999.04
2019-01-09T06:16:41.635Z,999.09
2019-01-09T06:17:41.128Z,999.09
2019-01-09T06:18:41.117Z,999.11
2019-01-09T06:19:41.103Z,999.07
2019-01-09T06:20:41.117Z,999.13
2019-01-09T06:21:41.087Z,999.11
2019-01-09T06:22:41.088Z,999.12
2019-01-09T06:23:41.725Z,999.16
2019-01-09T06:24:41.052Z,999.23
2019-01-09T06:25:41.045Z,999.17
2019-01-09T06:26:41.076Z,999.19
2019-01-09T06:27:41.025Z,999.21
2019-01-09T06:28:41.013Z,999.20
2019-01-09T06:29:40.991Z,999.23
2019-01-09T06:30:40.989Z,999.28
2019-01-09T06:31:40.991Z,999.28
2019-01-09T06:32:40.965Z,999.28
2019-01-09T06:33:40.961Z,999.34
2019-01-09T06:34:40.943Z,999.32
2019-01-09T06:35:40.939Z,999.26
2019-01-09T06:36:40.962Z,999.39
2019-01-09T06:37:40.915Z,999.31
2019-01-09T06:38:40.906Z,999.33
2019-01-09T06:39:40.903Z,999.35
2019-01-09T06:40:40.885Z,999.33
2019-01-09T06:41:41.047Z,999.32
2019-01-09T06:42:40.869Z,999.35
2019-01-09T06:43:40.859Z,999.46
2019-01-09T06:44:40.839Z,999.39
2019-01-09T06:45:40.830Z,999.42
2019-01-09T06:46:40.845Z,999.45
2019-01-09T06:47:40.814Z,999.41
2019-01-09T06:48:40.794Z,999.47
2019-01-09T06:49:40.791Z,999.48
2019-01-09T06:50:40.777Z,999.52
2019-01-09T06:51:40.869Z,999.48
2019-01-09T06:52:40.807Z,999.42
2019-01-09T06:53:40.762Z,999.46
2019-01-09T06:54:40.763Z,999.53
2019-01-09T06:55:40.724Z,999.48
2019-01-09T06:56:40.713Z,999.47
2019-01-09T06:57:40.726Z,999.46
2019-01-09T06:58:40.691Z,999.39
2019-01-09T06:59:40.677Z,999.43
2019-01-09T07:00:40.671Z,999.42
2019-01-09T07:01:40.659Z,999.42
2019-01-09T07:02:40.669Z,999.52
2019-01-09T07:03:40.639Z,999.42
2019-01-09T07:04:40.636Z,999.45
2019-01-09T07:05:40.615Z,999.53
2019-01-09T07:06:40.603Z,999.54
2019-01-09T07:07:40.638Z,999.58
2019-01-09T07:08:40.589Z,999.65
2019-01-09T07:09:40.571Z,999.68
2019-01-09T07:10:40.563Z,999.59
2019-01-09T07:11:40.571Z,999.63
2019-01-09T07:12:40.561Z,999.58
2019-01-09T07:13:40.538Z,999.63
2019-01-09T07:14:40.531Z,999.72
2019-01-09T07:15:40.523Z,999.61
2019-01-09T07:16:40.560Z,999.71
2019-01-09T07:17:40.509Z,999.68
2019-01-09T07:18:40.518Z,999.68
2019-01-09T07:19:40.468Z,999.73
2019-01-09T07:20:40.538Z,999.74
2019-01-09T07:21:45.523Z,999.71
2019-01-09T07:22:41.466Z,999.73
2019-01-09T07:23:40.433Z,999.72
2019-01-09T07:24:40.413Z,999.76
2019-01-09T07:25:40.407Z,999.73
2019-01-09T07:26:40.401Z,999.84
2019-01-09T07:27:40.523Z,999.82
2019-01-09T07:28:41.771Z,999.87
2019-01-09T07:29:40.360Z,999.81
2019-01-09T07:30:40.358Z,999.86
2019-01-09T07:31:40.389Z,999.86
2019-01-09T07:32:40.401Z,999.91
2019-01-09T07:33:42.472Z,999.82
2019-01-09T07:34:40.424Z,999.90
2019-01-09T07:35:40.320Z,999.99
2019-01-09T07:36:40.281Z,999.94
2019-01-09T07:37:44.960Z,999.96
2019-01-09T07:38:41.293Z,999.98
2019-01-09T07:39:40.263Z,999.96
2019-01-09T07:40:40.259Z,1000.04
2019-01-09T07:41:40.229Z,1000.02
2019-01-09T07:42:40.222Z,1000.05
2019-01-09T07:43:40.207Z,1000.04
2019-01-09T07:44:40.239Z,1000.10
2019-01-09T07:45:40.195Z,999.99
2019-01-09T07:46:40.192Z,1000.06
2019-01-09T07:47:40.201Z,1000.12
2019-01-09T07:48:40.167Z,1000.11
2019-01-09T07:49:40.166Z,1000.05
2019-01-09T07:50:40.153Z,1000.15
2019-01-09T07:51:40.125Z,1000.13
2019-01-09T07:52:40.116Z,1000.20
2019-01-09T07:53:40.109Z,1000.18
2019-01-09T07:54:40.121Z,1000.26
2019-01-09T07:55:40.081Z,1000.25
2019-01-09T07:56:40.075Z,1000.23
2019-01-09T07:57:40.079Z,1000.35
2019-01-09T07:58:40.047Z,1000.28
2019-01-09T07:59:40.045Z,1000.29
2019-01-09T08:00:40.025Z,1000.25
2019-01-09T08:01:40.017Z,1000.35
2019-01-09T08:02:40.021Z,1000.39
2019-01-09T08:03:40.001Z,1000.38
2019-01-09T08:04:39.989Z,1000.43
2019-01-09T08:05:39.997Z,1000.45
2019-01-09T08:06:39.968Z,1000.41
2019-01-09T08:07:39.976Z,1000.47
2019-01-09T08:08:40.036Z,1000.51
2019-01-09T08:09:39.941Z,1000.49
2019-01-09T08:10:39.923Z,1000.47
2019-01-09T08:11:39.934Z,1000.53
2019-01-09T08:12:39.900Z,1000.52
2019-01-09T08:13:39.916Z,1000.56
2019-01-09T08:14:39.882Z,1000.51
2019-01-09T08:15:39.892Z,1000.54
2019-01-09T08:16:39.888Z,1000.58
2019-01-09T08:17:39.859Z,1000.60
2019-01-09T08:18:39.851Z,1000.59
2019-01-09T08:19:39.824Z,1000.62
2019-01-09T08:20:39.815Z,1000.61
2019-01-09T08:21:39.804Z,1000.61
2019-01-09T08:22:39.819Z,1000.71
2019-01-09T08:23:39.779Z,1000.65
2019-01-09T08:24:39.774Z,1000.78
2019-01-09T08:25:39.762Z,1000.74
2019-01-09T08:26:39.752Z,1000.71
2019-01-09T08:27:39.761Z,1000.75
2019-01-09T08:28:39.731Z,1000.74
2019-01-09T08:29:39.725Z,1000.80
2019-01-09T08:30:39.722Z,1000.87
2019-01-09T08:31:39.698Z,1000.86
2019-01-09T08:32:39.701Z,1000.87
2019-01-09T08:33:39.674Z,1000.88
2019-01-09T08:34:39.677Z,1000.93
2019-01-09T08:35:39.665Z,1000.93
2019-01-09T08:36:39.647Z,1000.92
2019-01-09T08:37:39.659Z,1000.87
2019-01-09T08:38:39.645Z,1000.92
2019-01-09T08:39:39.613Z,1000.92
2019-01-09T08:40:39.617Z,1000.99
2019-01-09T08:41:39.600Z,1001.03
2019-01-09T08:42:39.583Z,1001.06
2019-01-09T08:43:39.610Z,1000.99
2019-01-09T08:44:39.565Z,1001.03
2019-01-09T08:45:39.560Z,1001.00
2019-01-09T08:46:39.541Z,1001.08
2019-01-09T08:47:39.533Z,1001.11
2019-01-09T08:48:39.538Z,1001.15
2019-01-09T08:49:39.512Z,1001.12
2019-01-09T08:50:39.495Z,1001.14
2019-01-09T08:51:39.501Z,1001.18
2019-01-09T08:52:39.477Z,1001.15
2019-01-09T08:53:39.505Z,1001.13
2019-01-09T08:54:39.458Z,1001.25
2019-01-09T08:55:39.453Z,1001.20
2019-01-09T08:56:39.446Z,1001.19
2019-01-09T08:57:39.439Z,1001.20
2019-01-09T08:58:39.417Z,1001.23
2019-01-09T08:59:39.439Z,1001.24
2019-01-09T09:00:39.388Z,1001.28
2019-01-09T09:01:39.377Z,1001.25
2019-01-09T09:02:39.386Z,1001.38
2019-01-09T09:03:39.366Z,1001.39
2019-01-09T09:04:39.374Z,1001.48
2019-01-09T09:05:39.349Z,1001.40
2019-01-09T09:06:39.332Z,1001.41
2019-01-09T09:07:39.677Z,1001.39
2019-01-09T09:08:39.309Z,1001.44
2019-01-09T09:09:39.321Z,1001.47
2019-01-09T09:10:39.285Z,1001.45
2019-01-09T09:11:39.279Z,1001.54
2019-01-09T09:12:39.260Z,1001.53
2019-01-09T09:13:39.247Z,1001.60
2019-01-09T09:14:39.278Z,1001.54
2019-01-09T09:15:39.243Z,1001.57
2019-01-09T09:16:39.218Z,1001.54
2019-01-09T09:17:39.219Z,1001.65
2019-01-09T09:18:39.230Z,1001.65
2019-01-09T09:19:39.186Z,1001.69
2019-01-09T09:20:39.195Z,1001.66
2019-01-09T09:21:39.172Z,1001.67
2019-01-09T09:22:39.276Z,1001.78
2019-01-09T09:23:39.160Z,1001.76
2019-01-09T09:24:39.140Z,1001.79
2019-01-09T09:25:39.166Z,1001.69
2019-01-09T09:26:39.123Z,1001.74
2019-01-09T09:27:39.109Z,1001.75
2019-01-09T09:28:39.094Z,1001.77
2019-01-09T09:29:39.142Z,1001.79
2019-01-09T09:30:39.111Z,1001.79
2019-01-09T09:31:39.069Z,1001.83
2019-01-09T09:32:39.056Z,1001.83
2019-01-09T09:33:39.039Z,1001.86
2019-01-09T09:34:39.052Z,1001.87
2019-01-09T09:35:39.045Z,1001.81
2019-01-09T09:36:39.012Z,1001.88
2019-01-09T09:37:39.004Z,1001.84
2019-01-09T09:38:39.000Z,1001.96
2019-01-09T09:39:38.980Z,1002.07
2019-01-09T09:40:39.033Z,1002.00
2019-01-09T09:41:38.956Z,1001.96
2019-01-09T09:42:38.946Z,1002.06
2019-01-09T09:43:38.946Z,1002.00
2019-01-09T09:44:38.927Z,1002.13
2019-01-09T09:45:38.933Z,1002.00
2019-01-09T09:46:38.903Z,1002.07
2019-01-09T09:47:38.899Z,1001.99
2019-01-09T09:48:38.884Z,1002.08
2019-01-09T09:49:38.876Z,1002.12
2019-01-09T09:50:38.881Z,1002.08
2019-01-09T09:51:38.849Z,1002.17
2019-01-09T09:52:38.835Z,1002.14
2019-01-09T09:53:38.830Z,1002.16
2019-01-09T09:54:38.826Z,1002.32
2019-01-09T09:55:38.825Z,1002.19
2019-01-09T09:56:38.794Z,1002.23
2019-01-09T09:57:38.786Z,1002.25
2019-01-09T09:58:38.874Z,1002.25
2019-01-09T09:59:38.783Z,1002.27
2019-01-09T10:00:38.804Z,1002.32
2019-01-09T10:01:38.780Z,1002.23
2019-01-09T10:02:38.731Z,1002.40
2019-01-09T10:03:38.731Z,1002.33
2019-01-09T10:04:38.713Z,1002.35
2019-01-09T10:05:38.698Z,1002.40
2019-01-09T10:06:38.704Z,1002.40
2019-01-09T10:07:38.698Z,1002.40
2019-01-09T10:08:38.683Z,1002.47
2019-01-09T10:09:38.658Z,1002.42
2019-01-09T10:10:39.389Z,1002.52
2019-01-09T10:11:38.654Z,1002.41
2019-01-09T10:12:38.631Z,1002.49
2019-01-09T10:13:38.633Z,1002.54
2019-01-09T10:14:38.605Z,1002.49
2019-01-09T10:15:38.609Z,1002.52
2019-01-09T10:16:38.606Z,1002.53
2019-01-09T10:17:38.576Z,1002.52
2019-01-09T10:18:38.570Z,1002.61
2019-01-09T10:19:38.568Z,1002.56
2019-01-09T10:20:38.542Z,1002.55
2019-01-09T10:21:38.558Z,1002.52
2019-01-09T10:22:38.519Z,1002.61
2019-01-09T10:23:38.519Z,1002.61
2019-01-09T10:24:38.519Z,1002.60
2019-01-09T10:25:38.517Z,1002.65
2019-01-09T10:26:38.520Z,1002.64
2019-01-09T10:27:38.474Z,1002.67
2019-01-09T10:28:38.473Z,1002.69
2019-01-09T10:29:38.462Z,1002.69
2019-01-09T10:30:38.541Z,1002.72
2019-01-09T10:31:38.476Z,1002.67
2019-01-09T10:32:38.412Z,1002.66
2019-01-09T10:33:38.404Z,1002.74
2019-01-09T10:34:38.394Z,1002.83
2019-01-09T10:35:38.396Z,1002.76
2019-01-09T10:36:38.399Z,1002.81
2019-01-09T10:37:38.365Z,1002.84
2019-01-09T10:38:38.498Z,1002.81
2019-01-09T10:39:38.354Z,1002.83
2019-01-09T10:40:38.325Z,1002.82
2019-01-09T10:41:38.367Z,1002.88
2019-01-09T10:42:38.306Z,1002.90
2019-01-09T10:43:38.304Z,1002.86
2019-01-09T10:44:38.291Z,1002.88
2019-01-09T10:45:38.283Z,1002.87
2019-01-09T10:46:38.294Z,1002.95
2019-01-09T10:47:38.268Z,1002.95
2019-01-09T10:48:38.264Z,1002.95
2019-01-09T10:49:38.234Z,1002.93
2019-01-09T10:50:38.220Z,1002.93
2019-01-09T10:51:38.255Z,1002.92
2019-01-09T10:52:38.313Z,1002.90
2019-01-09T10:53:38.204Z,1002.88
2019-01-09T10:54:38.175Z,1002.96
2019-01-09T10:55:38.171Z,1002.95
2019-01-09T10:56:38.182Z,1002.95
2019-01-09T10:57:38.148Z,1002.90
2019-01-09T10:58:38.222Z,1002.97
2019-01-09T10:59:38.155Z,1002.98
2019-01-09T11:00:38.123Z,1003.00
2019-01-09T11:01:38.162Z,1002.97
2019-01-09T11:02:38.103Z,1003.03
2019-01-09T11:03:38.087Z,1002.95
2019-01-09T11:04:38.091Z,1002.95
2019-01-09T11:05:38.073Z,1002.97
2019-01-09T11:06:38.102Z,1002.97
2019-01-09T11:07:38.050Z,1002.96
2019-01-09T11:08:46.682Z,1003.00
2019-01-09T11:09:39.020Z,1002.98
2019-01-09T11:10:38.020Z,1002.99
2019-01-09T11:11:38.009Z,1003.04
2019-01-09T11:12:38.037Z,1003.06
2019-01-09T11:13:37.981Z,1003.09
2019-01-09T11:14:37.974Z,1003.01
2019-01-09T11:15:37.983Z,1003.12
2019-01-09T11:16:37.964Z,1002.99
2019-01-09T11:17:37.979Z,1002.99
2019-01-09T11:18:37.929Z,1003.09
2019-01-09T11:19:37.918Z,1003.14
2019-01-09T11:20:37.906Z,1003.19
2019-01-09T11:21:37.900Z,1003.15
2019-01-09T11:22:37.902Z,1003.15
2019-01-09T11:23:37.875Z,1003.15
2019-01-09T11:24:37.867Z,1003.14
2019-01-09T11:25:37.854Z,1003.22
2019-01-09T11:26:37.842Z,1003.18
2019-01-09T11:27:37.940Z,1003.17
2019-01-09T11:28:37.826Z,1003.24
2019-01-09T11:29:37.859Z,1003.21
2019-01-09T11:30:37.794Z,1003.21
2019-01-09T11:31:37.791Z,1003.28
2019-01-09T11:32:37.806Z,1003.22
2019-01-09T11:33:37.833Z,1003.26
2019-01-09T11:34:37.824Z,1003.30
2019-01-09T11:35:37.747Z,1003.24
2019-01-09T11:36:37.743Z,1003.22
2019-01-09T11:37:37.759Z,1003.36
2019-01-09T11:38:37.723Z,1003.28
2019-01-09T11:39:37.764Z,1003.30
2019-01-09T11:40:37.752Z,1003.40
2019-01-09T11:41:37.690Z,1003.31
2019-01-09T11:42:37.693Z,1003.40
2019-01-09T11:43:37.756Z,1003.32
2019-01-09T11:44:37.655Z,1003.37
2019-01-09T11:45:37.634Z,1003.33
2019-01-09T11:46:37.630Z,1003.36
2019-01-09T11:47:37.661Z,1003.36
2019-01-09T11:48:37.700Z,1003.40
2019-01-09T11:49:37.596Z,1003.37
2019-01-09T11:50:37.591Z,1003.45
2019-01-09T11:51:37.572Z,1003.40
2019-01-09T11:52:37.612Z,1003.44
2019-01-09T11:53:37.564Z,1003.44
2019-01-09T11:54:37.564Z,1003.44
2019-01-09T11:55:37.536Z,1003.46
2019-01-09T11:56:37.525Z,1003.47
2019-01-09T11:57:37.514Z,1003.54
2019-01-09T11:58:37.561Z,1003.55
2019-01-09T11:59:37.495Z,1003.44
2019-01-09T12:00:37.482Z,1003.56
2019-01-09T12:01:37.474Z,1003.55
2019-01-09T12:02:37.460Z,1003.50
2019-01-09T12:03:37.497Z,1003.60
2019-01-09T12:04:37.438Z,1003.56
2019-01-09T12:05:37.439Z,1003.55
2019-01-09T12:06:37.413Z,1003.61
2019-01-09T12:07:37.405Z,1003.60
2019-01-09T12:08:37.418Z,1003.53
2019-01-09T12:09:37.380Z,1003.64
2019-01-09T12:10:37.384Z,1003.59
2019-01-09T12:11:37.376Z,1003.49
2019-01-09T12:12:37.356Z,1003.56
2019-01-09T12:13:37.366Z,1003.67
2019-01-09T12:14:37.402Z,1003.70
2019-01-09T12:15:37.329Z,1003.64
2019-01-09T12:16:37.343Z,1003.68
2019-01-09T12:17:37.303Z,1003.64
2019-01-09T12:18:37.356Z,1003.73
2019-01-09T12:19:37.299Z,1003.75